Callander, Canada
Current Conditions -  °F | °C
As of 7:00 PM on Wednesday 22 Oct 2014 (Local Time) from CYYB Reporting Station
Clear Clear  
Wind Chill: 39°   Ceiling: Unl
Heat Index: 43°   Visibility: 15mi
Dew Point: 32°   Wind: 6mph
Humidity: 66%   Direction: 50°NE
Pressure: 30.29"   Gusts: NA
Location:  46.22°N, 79.36°W
Report Text: CYYB 222300Z 05005KT 15SM SKC 06/00 A3029 RMK SLP272
Loading
Personal Weather Stations






























Interactive Weather Map New forecast layout! Learn more

10-Day Weather Forecast

Advertisements
Track Severe Weather on mobile